Accueil
METAR-TAF:

METAR-TAF

Aéroports :

Wittering, Angleterre

latitude: 52-37N, longitude: 000-28W, altitude: 84 m

Observation

Le bulletin a été fait il y a 38 minutes, à 19:50 UTC
Vent 3 kt de sud/sud-ouest
Température 7°C
Humidité 93%
Pression 1027 hPa
Visibilité 10 km ou plus

METAR: EGXT 191950Z AUTO 20003KT 9999 BKN230/// 07/06 Q1027

Heure: 21:28 (20:28 UTC)

Prévision

Le bulletin a été fait il y a 7 heures et 5 minutes, à 13:23 UTC
Prévision valable du 19 à 15 UTC au 19 à 18 UTC
Vent 5 kt de ouest
Visibilité 10 km ou plus
Quelques nuages à une hauteur de 2500 ft

TAF: EGXT 191323Z 1915/1918 27005KT 9999 FEW025

Observations et prévisions météorologiques de plus de 4000 aéroports (messages METAR et TAF).

Les stations disponibles sont représentées par des disques jaunes et rouges sur la carte.

Passer la souris dessus pour voir le nom de la station.

Cliquer dessus pour voir les observations et prévisions météorologiques.

Pour changer de carte: cliquez sur les boutons verts avec une croix noire pour zoomer, sur le bouton vert avec un tiret pour effectuer un zoom arrière, ou sur les flèches vertes pour les cartes adjacentes.


METAR-TAF: